Aérodrome :
LOGIN :

S'inscrire | Disclaimer

   EN    FR    IT 

 










Légende :    VFR   VFR Marginal   IFR   IFR Intensif   IFR Très Intensif
Visi : 
Plafond : 
>= 8 km
>= 3000ft
5 à 8 km
1000 à 3000 ft
1500m à 5 km
500 à 1000 ft
800 à 1500m
200 à 500 ft
< 800m
< 200 ft
Symboles :   Orages  Brouillard  Fortes neiges  Fortes précipitations  Vent > 20 kt
SIGMETs :   Divers  Orages  Givrage  Turbulence  Onde Orograph.  Cendres Volcan.






- Altitude de l'aérodrome : 7 ft
- Code IATA : POW


LJPZ - Portoroz

DERNIER METAR :
  • 070100Z AUTO VRB01KT 9999 NCD 06/M03 Q1027

METARs EXPIRÉS :
  • 070030Z AUTO 13006KT 9999 NCD 06/M02 Q1027
  • 070000Z AUTO 13005KT 9999 NCD 06/M02 Q1028
  • 062330Z AUTO 12005KT 9999 NCD 07/M02 Q1028
  • 062300Z AUTO 13004KT 9999 NCD 07/M01 Q1027
  • 062230Z AUTO 12007KT 9999 NCD 07/M00 Q1027
  • 062200Z AUTO VRB02KT 9999 NCD 08/00 Q1027

TAF TAF LJPZ
Valide du 07 à 00h jusqu'au 07 à 09h UTC


062300Z 0700/0709 12007KT CAVOK



MET'MAP, la Météo Aéronautique d'un coup d'oeil ! - Copyright ORBIFLY Décembre 2007 - Disclaimer

ORBIFLY MET'MAP TEAM :

Programmation & Développement : Alexandra Zaïnal
Sur une idée originale de : Baudouin d'Aumeries
Assistance à la programmation : Marc-Olivier Méhu
Soutien technique & logistique : Manuel Goepfert

Contact : metmap@orbifly.com




SOURCES & CREDITS :

   NOAA